Terminal Aerodrome Forecast
Issued by NWS

Home | Current Version | Previous Version | Graphics & Text | Print | Product List | Glossary On
Versions: 1 2 3 4 5 6 7 8 9 10 11 12
000
FTUS43 KGRB 151100
TAFMTW
TAF
KMTW 151123Z 1512/1612 25005KT P6SM -SHRA SCT050 OVC080
      TEMPO 1515/1519 5SM -SHRA BR BKN050
     FM151900 30006KT P6SM VCSH BKN050 OVC070
     FM152200 32008KT P6SM SCT050 BKN090
     FM160100 30004KT P6SM SKC
     FM160900 28004KT P6SM SKC=

USA.gov is the U.S. government's official web portal to all federal, state and local government web resources and services.